createdAt,value
2023-04-18T00:00:28.006Z,7.92
2023-04-18T00:05:52.988Z,7.90
2023-04-18T00:10:58.560Z,7.87
2023-04-18T00:16:04.494Z,7.84
2023-04-18T00:21:10.776Z,7.79
2023-04-18T00:26:16.708Z,7.77
2023-04-18T00:31:22.305Z,7.74
2023-04-18T00:36:27.914Z,7.70
2023-04-18T00:41:33.489Z,7.67
2023-04-18T00:46:39.368Z,7.64
2023-04-18T00:51:46.254Z,7.59
2023-04-18T00:56:52.135Z,7.51
2023-04-18T01:01:57.846Z,7.46
2023-04-18T01:07:04.592Z,7.45
2023-04-18T01:12:10.648Z,7.37
2023-04-18T01:17:17.105Z,7.32
2023-04-18T01:22:22.929Z,7.29
2023-04-18T01:27:28.713Z,7.27
2023-04-18T01:32:34.641Z,7.27
2023-04-18T01:37:40.344Z,7.29
2023-04-18T01:42:45.946Z,7.33
2023-04-18T01:47:51.748Z,7.35
2023-04-18T01:52:57.434Z,7.40
2023-04-18T01:58:03.401Z,7.43
2023-04-18T02:03:09.138Z,7.44
2023-04-18T02:08:15.138Z,7.45
2023-04-18T02:13:20.780Z,7.47
2023-04-18T02:18:27.145Z,7.50
2023-04-18T02:23:32.839Z,7.51
2023-04-18T02:28:39.240Z,7.48
2023-04-18T02:33:46.775Z,7.45
2023-04-18T02:38:52.452Z,7.43
2023-04-18T02:43:58.106Z,7.42
2023-04-18T02:49:03.857Z,7.38
2023-04-18T02:54:09.904Z,7.36
2023-04-18T02:59:16.019Z,7.35
2023-04-18T03:04:21.930Z,7.34
2023-04-18T03:09:27.808Z,7.34
2023-04-18T03:14:33.724Z,7.34
2023-04-18T03:19:39.497Z,7.35
2023-04-18T03:24:45.617Z,7.35
2023-04-18T03:29:51.949Z,7.31
2023-04-18T03:34:57.709Z,7.29
2023-04-18T03:40:04.973Z,7.26
2023-04-18T03:45:12.704Z,7.23
2023-04-18T03:50:18.403Z,7.19
2023-04-18T03:55:24.065Z,7.17
2023-04-18T04:00:29.813Z,7.17
2023-04-18T04:05:35.631Z,7.18
2023-04-18T04:10:41.190Z,7.18
2023-04-18T04:15:47.083Z,7.22
2023-04-18T04:20:52.658Z,7.28
2023-04-18T04:25:58.878Z,7.34
2023-04-18T04:31:07.677Z,7.35
2023-04-18T04:36:14.543Z,7.41
2023-04-18T04:41:22.111Z,7.51
2023-04-18T04:46:30.031Z,7.61
2023-04-18T04:51:35.538Z,7.72
2023-04-18T04:56:41.230Z,7.83
2023-04-18T05:02:02.086Z,7.97
2023-04-18T05:07:08.077Z,8.09
2023-04-18T05:12:13.703Z,8.17
2023-04-18T05:17:19.295Z,8.22
2023-04-18T05:22:25.069Z,8.25
2023-04-18T05:27:30.776Z,8.29
2023-04-18T05:32:38.566Z,8.38
2023-04-18T05:37:44.236Z,8.42
2023-04-18T05:42:50.305Z,8.51
2023-04-18T05:47:56.055Z,8.62
2023-04-18T05:53:01.774Z,8.81
2023-04-18T05:58:07.626Z,8.88
2023-04-18T06:03:13.349Z,8.96
2023-04-18T06:08:19.144Z,8.97
2023-04-18T06:13:25.099Z,8.90
2023-04-18T06:18:30.993Z,8.88
2023-04-18T06:23:38.139Z,8.89
2023-04-18T06:28:43.954Z,8.88
2023-04-18T06:33:49.696Z,8.90
2023-04-18T06:38:55.802Z,8.92
2023-04-18T06:44:04.665Z,9.12
2023-04-18T06:49:11.132Z,9.47
2023-04-18T06:54:16.893Z,9.83
2023-04-18T06:59:23.014Z,10.14
2023-04-18T07:04:28.940Z,10.48
2023-04-18T07:09:34.700Z,10.76
2023-04-18T07:14:42.058Z,11.09
2023-04-18T07:19:48.365Z,11.37
2023-04-18T07:24:54.311Z,11.58
2023-04-18T07:29:59.886Z,11.81
2023-04-18T07:35:06.496Z,11.96
2023-04-18T07:40:16.281Z,12.19
2023-04-18T07:45:22.019Z,12.38
2023-04-18T07:50:33.790Z,12.51
2023-04-18T07:55:40.090Z,12.71
2023-04-18T08:00:47.119Z,12.64
2023-04-18T08:05:54.223Z,12.77
2023-04-18T08:11:00.581Z,12.83
2023-04-18T08:16:08.545Z,12.96
2023-04-18T08:21:14.878Z,13.02
2023-04-18T08:26:21.924Z,13.19
2023-04-18T08:31:28.317Z,13.52
2023-04-18T08:36:35.373Z,13.83
2023-04-18T08:41:48.116Z,14.20
2023-04-18T08:46:55.373Z,14.35
2023-04-18T08:52:09.299Z,14.48
2023-04-18T08:57:23.619Z,14.74
2023-04-18T09:02:42.248Z,14.99
2023-04-18T09:07:50.072Z,15.17
2023-04-18T09:12:56.561Z,15.18
2023-04-18T09:18:03.507Z,15.20
2023-04-18T09:23:11.502Z,15.09
2023-04-18T09:28:34.478Z,15.38
2023-04-18T09:33:52.382Z,15.73
2023-04-18T09:38:58.935Z,15.96
2023-04-18T09:44:15.572Z,16.06
2023-04-18T09:49:21.586Z,16.09
2023-04-18T09:54:31.434Z,16.12
2023-04-18T09:59:47.228Z,16.12
2023-04-18T10:04:56.240Z,16.17
2023-04-18T10:10:02.054Z,16.29
2023-04-18T10:15:11.264Z,16.36
2023-04-18T10:20:22.377Z,16.59
2023-04-18T10:25:54.481Z,16.99
2023-04-18T10:31:05.242Z,17.17
2023-04-18T10:36:20.122Z,17.04
2023-04-18T10:41:28.107Z,16.60
2023-04-18T10:46:35.184Z,16.14
2023-04-18T10:51:40.903Z,15.92
2023-04-18T10:56:56.454Z,16.19
2023-04-18T11:02:23.466Z,16.62
2023-04-18T11:07:37.769Z,16.81
2023-04-18T11:12:43.635Z,17.17
2023-04-18T11:17:58.733Z,17.42
2023-04-18T11:23:04.472Z,17.72
2023-04-18T11:28:13.144Z,17.87
2023-04-18T11:33:19.089Z,17.38
2023-04-18T11:38:31.105Z,16.97
2023-04-18T11:43:36.767Z,16.97
2023-04-18T11:48:45.090Z,17.36
2023-04-18T11:53:51.278Z,17.04
2023-04-18T11:58:57.395Z,16.91
2023-04-18T12:04:05.369Z,17.15
2023-04-18T12:09:16.275Z,17.61
2023-04-18T12:14:22.776Z,17.58
2023-04-18T12:19:32.312Z,17.32
2023-04-18T12:24:38.238Z,17.01
2023-04-18T12:29:43.792Z,16.96
2023-04-18T12:34:49.631Z,17.03
2023-04-18T12:39:55.452Z,16.99
2023-04-18T12:45:03.173Z,16.98
2023-04-18T12:50:16.628Z,17.07
2023-04-18T12:55:23.028Z,17.02
2023-04-18T13:00:31.927Z,16.99
2023-04-18T13:05:37.696Z,17.09
2023-04-18T13:10:43.558Z,17.12
2023-04-18T13:15:50.846Z,16.96
2023-04-18T13:20:56.468Z,16.62
2023-04-18T13:26:02.130Z,16.28
2023-04-18T13:31:07.827Z,16.16
2023-04-18T13:36:13.457Z,15.98
2023-04-18T13:41:46.582Z,15.83
2023-04-18T13:46:53.121Z,15.74
2023-04-18T13:51:58.769Z,15.56
2023-04-18T13:57:10.853Z,15.35
2023-04-18T14:02:16.619Z,15.17
2023-04-18T14:07:22.398Z,15.02
2023-04-18T14:12:51.858Z,15.02
2023-04-18T14:17:57.934Z,15.10
2023-04-18T14:23:03.615Z,15.27
2023-04-18T14:28:12.090Z,15.42
2023-04-18T14:33:17.865Z,15.60
2023-04-18T14:38:23.664Z,15.65
2023-04-18T14:43:29.793Z,15.42
2023-04-18T14:48:35.481Z,15.15
2023-04-18T14:53:41.399Z,14.83
2023-04-18T14:58:47.115Z,14.73
2023-04-18T15:03:53.852Z,14.69
2023-04-18T15:08:59.692Z,14.55
2023-04-18T15:14:05.249Z,14.39
2023-04-18T15:19:11.203Z,14.21
2023-04-18T15:24:17.024Z,13.96
2023-04-18T15:29:22.905Z,13.81
2023-04-18T15:34:28.535Z,13.71
2023-04-18T15:39:34.160Z,13.66
2023-04-18T15:44:39.805Z,13.55
2023-04-18T15:49:45.417Z,13.49
2023-04-18T15:54:52.262Z,13.45
2023-04-18T15:59:59.060Z,13.43
2023-04-18T16:05:05.184Z,13.39
2023-04-18T16:10:14.705Z,13.36
2023-04-18T16:15:20.918Z,13.36
2023-04-18T16:20:27.239Z,13.31
2023-04-18T16:25:33.159Z,13.27
2023-04-18T16:30:40.068Z,13.29
2023-04-18T16:35:45.781Z,13.24
2023-04-18T16:40:51.412Z,13.19
2023-04-18T16:45:57.470Z,13.16
2023-04-18T16:51:03.076Z,13.10
2023-04-18T16:56:09.350Z,13.04
2023-04-18T17:01:15.011Z,12.97
2023-04-18T17:06:22.490Z,12.97
2023-04-18T17:11:28.210Z,12.95
2023-04-18T17:16:34.210Z,12.96
2023-04-18T17:21:40.461Z,12.91
2023-04-18T17:26:46.145Z,12.81
2023-04-18T17:31:51.995Z,12.72
2023-04-18T17:36:57.728Z,12.65
2023-04-18T17:42:03.556Z,12.51
2023-04-18T17:47:09.629Z,12.37
2023-04-18T17:52:15.373Z,12.26
2023-04-18T17:57:21.989Z,12.16
2023-04-18T18:02:28.288Z,12.08
2023-04-18T18:07:36.880Z,12.01
2023-04-18T18:12:43.225Z,11.90
2023-04-18T18:17:50.792Z,11.78
2023-04-18T18:22:59.129Z,11.66
2023-04-18T18:28:06.664Z,11.56
2023-04-18T18:33:12.325Z,11.43
2023-04-18T18:38:18.061Z,11.32
2023-04-18T18:43:25.907Z,11.21
2023-04-18T18:48:32.430Z,11.10
2023-04-18T18:53:40.233Z,10.99
2023-04-18T18:58:46.395Z,10.90
2023-04-18T19:03:52.217Z,10.82
2023-04-18T19:08:58.189Z,10.78
2023-04-18T19:14:03.908Z,10.79
2023-04-18T19:19:10.065Z,10.77
2023-04-18T19:24:16.138Z,10.71
2023-04-18T19:29:23.984Z,10.60
2023-04-18T19:34:30.102Z,10.46
2023-04-18T19:39:36.274Z,10.31
2023-04-18T19:44:41.973Z,10.19
2023-04-18T19:49:47.721Z,10.04
2023-04-18T19:54:54.291Z,9.90
2023-04-18T19:59:59.948Z,9.72
2023-04-18T20:05:07.352Z,9.60
2023-04-18T20:10:13.727Z,9.47
2023-04-18T20:15:19.929Z,9.25
2023-04-18T20:20:25.845Z,8.99
2023-04-18T20:25:32.044Z,8.76
2023-04-18T20:30:37.714Z,8.58
2023-04-18T20:35:44.066Z,8.48
2023-04-18T20:40:52.536Z,8.38
2023-04-18T20:45:58.846Z,8.30
2023-04-18T20:51:04.721Z,8.23
2023-04-18T20:56:10.293Z,8.13
2023-04-18T21:01:15.926Z,8.02
2023-04-18T21:06:22.357Z,7.88
2023-04-18T21:11:28.034Z,7.76
2023-04-18T21:16:33.765Z,7.72
2023-04-18T21:21:39.481Z,7.68
2023-04-18T21:26:45.052Z,7.62
2023-04-18T21:31:51.075Z,7.57
2023-04-18T21:36:57.358Z,7.55
2023-04-18T21:42:02.925Z,7.56
2023-04-18T21:47:08.552Z,7.57
2023-04-18T21:52:14.597Z,7.48
2023-04-18T21:57:20.256Z,7.37
2023-04-18T22:02:27.216Z,7.23
2023-04-18T22:07:35.302Z,7.12
2023-04-18T22:12:44.505Z,6.97
2023-04-18T22:17:50.638Z,6.88
2023-04-18T22:22:56.808Z,6.92
2023-04-18T22:28:02.644Z,6.95
2023-04-18T22:33:08.302Z,6.93
2023-04-18T22:38:13.982Z,6.91
2023-04-18T22:43:23.206Z,6.88
2023-04-18T22:48:29.013Z,6.83
2023-04-18T22:53:34.678Z,6.78
2023-04-18T22:58:40.299Z,6.68
2023-04-18T23:03:46.309Z,6.60
2023-04-18T23:08:52.058Z,6.55
2023-04-18T23:13:57.739Z,6.49
2023-04-18T23:19:04.466Z,6.49
2023-04-18T23:24:11.619Z,6.50
2023-04-18T23:29:17.504Z,6.48
2023-04-18T23:34:23.433Z,6.45
2023-04-18T23:39:29.103Z,6.45
2023-04-18T23:44:34.747Z,6.47
2023-04-18T23:49:40.425Z,6.45
2023-04-18T23:54:46.130Z,6.40
2023-04-18T23:59:52.063Z,6.36
